Time,TemperatureF,DewpointF,PressureIn,WindDirection,WindDirectionDegrees,WindSpeedMPH,WindSpeedGustMPH,Humidity,HourlyPrecipIn,Conditions,Clouds,dailyrainin,SolarRadiationWatts/m^2,SoftwareType,DateUTC
2013-08-24 00:01:00,59.8,59.2,30.23,West,270,1.0,1.0,98,0.00,,,0.00,0,Wunderground v.1.15,2013-08-24 04:01:00,
2013-08-24 00:02:00,59.8,59.2,30.23,West,272,1.0,1.0,98,0.00,,,0.00,0,Wunderground v.1.15,2013-08-24 04:02:00,
2013-08-24 00:04:00,59.8,59.2,30.23,West,269,1.0,2.0,98,0.00,,,0.00,0,Wunderground v.1.15,2013-08-24 04:04:00,
2013-08-24 00:06:00,59.8,59.2,30.23,West,271,1.0,2.0,98,0.00,,,0.00,0,Wunderground v.1.15,2013-08-24 04:06:00,
2013-08-24 00:11:00,59.7,59.1,30.23,West,271,1.0,2.0,98,0.00,,,0.00,0,Wunderground v.1.15,2013-08-24 04:11:00,
2013-08-24 00:15:00,59.6,59.0,30.23,West,270,1.0,3.0,98,0.00,,,0.00,0,Wunderground v.1.15,2013-08-24 04:15:00,
2013-08-24 00:21:00,59.5,58.9,30.23,West,269,1.0,1.0,98,0.00,,,0.00,0,Wunderground v.1.15,2013-08-24 04:21:00,
2013-08-24 00:26:00,59.5,58.9,30.23,West,270,0.0,1.0,98,0.00,,,0.00,0,Wunderground v.1.15,2013-08-24 04:26:00,
2013-08-24 00:31:00,59.5,58.9,30.23,West,269,1.0,1.0,98,0.00,,,0.00,0,Wunderground v.1.15,2013-08-24 04:31:00,
2013-08-24 00:37:00,59.4,59.1,30.24,West,271,0.0,1.0,99,0.00,,,0.00,0,Wunderground v.1.15,2013-08-24 04:37:00,
2013-08-24 00:42:00,59.4,59.1,30.24,West,269,0.0,0.0,99,0.00,,,0.00,0,Wunderground v.1.15,2013-08-24 04:42:00,
2013-08-24 00:48:00,59.4,59.1,30.24,West,269,0.0,0.0,99,0.00,,,0.00,0,Wunderground v.1.15,2013-08-24 04:48:00,
2013-08-24 00:53:00,59.4,59.1,30.24,West,269,0.0,1.0,99,0.00,,,0.00,0,Wunderground v.1.15,2013-08-24 04:53:00,
2013-08-24 00:58:00,59.4,59.1,30.24,West,269,0.0,1.0,99,0.00,,,0.00,0,Wunderground v.1.15,2013-08-24 04:58:00,
2013-08-24 01:04:00,59.3,59.0,30.24,West,272,0.0,0.0,99,0.00,,,0.00,0,Wunderground v.1.15,2013-08-24 05:04:00,
2013-08-24 01:10:00,59.2,58.9,30.24,West,269,0.0,0.0,99,0.00,,,0.00,0,Wunderground v.1.15,2013-08-24 05:10:00,
2013-08-24 01:15:00,59.3,59.0,30.24,West,272,0.0,0.0,99,0.00,,,0.00,0,Wunderground v.1.15,2013-08-24 05:15:00,
2013-08-24 01:21:00,59.4,59.1,30.24,West,272,0.0,0.0,99,0.00,,,0.00,0,Wunderground v.1.15,2013-08-24 05:21:00,
2013-08-24 01:26:00,59.4,59.1,30.24,West,271,0.0,1.0,99,0.00,,,0.00,0,Wunderground v.1.15,2013-08-24 05:26:00,
2013-08-24 01:32:00,59.5,59.2,30.24,West,271,0.0,0.0,99,0.00,,,0.00,0,Wunderground v.1.15,2013-08-24 05:32:00,
2013-08-24 01:37:00,59.5,59.2,30.24,West,272,0.0,0.0,99,0.00,,,0.00,0,Wunderground v.1.15,2013-08-24 05:37:00,
2013-08-24 01:42:00,59.6,59.3,30.24,West,271,0.0,0.0,99,0.00,,,0.00,0,Wunderground v.1.15,2013-08-24 05:42:00,
2013-08-24 01:47:00,59.6,59.3,30.24,West,271,0.0,0.0,99,0.00,,,0.00,0,Wunderground v.1.15,2013-08-24 05:47:00,
2013-08-24 01:53:00,59.5,59.2,30.24,West,269,0.0,0.0,99,0.00,,,0.00,0,Wunderground v.1.15,2013-08-24 05:53:00,
2013-08-24 01:58:00,59.3,59.0,30.24,West,269,0.0,0.0,99,0.00,,,0.00,0,Wunderground v.1.15,2013-08-24 05:58:00,
2013-08-24 02:04:00,59.1,58.8,30.25,West,269,0.0,0.0,99,0.00,,,0.00,0,Wunderground v.1.15,2013-08-24 06:04:00,
2013-08-24 02:09:00,59.0,58.7,30.25,West,271,0.0,0.0,99,0.00,,,0.00,0,Wunderground v.1.15,2013-08-24 06:09:00,
2013-08-24 02:15:00,58.9,58.6,30.25,West,270,0.0,0.0,99,0.00,,,0.00,0,Wunderground v.1.15,2013-08-24 06:15:00,
2013-08-24 02:20:00,58.9,58.6,30.25,West,269,0.0,0.0,99,0.00,,,0.00,0,Wunderground v.1.15,2013-08-24 06:20:00,
2013-08-24 02:25:00,58.9,58.6,30.25,West,270,0.0,0.0,99,0.00,,,0.00,0,Wunderground v.1.15,2013-08-24 06:25:00,
2013-08-24 02:31:00,58.9,58.6,30.25,West,269,0.0,0.0,99,0.00,,,0.00,0,Wunderground v.1.15,2013-08-24 06:31:00,
2013-08-24 02:36:00,58.9,58.6,30.25,West,267,0.0,2.0,99,0.00,,,0.00,0,Wunderground v.1.15,2013-08-24 06:36:00,
2013-08-24 02:41:00,58.8,58.5,30.25,West,269,1.0,1.0,99,0.00,,,0.00,0,Wunderground v.1.15,2013-08-24 06:41:00,
2013-08-24 02:47:00,58.7,58.4,30.25,West,271,0.0,1.0,99,0.00,,,0.00,0,Wunderground v.1.15,2013-08-24 06:47:00,
2013-08-24 02:52:00,58.6,58.3,30.25,West,273,0.0,0.0,99,0.00,,,0.00,0,Wunderground v.1.15,2013-08-24 06:52:00,
2013-08-24 02:58:00,58.4,58.1,30.25,West,269,0.0,0.0,99,0.00,,,0.00,0,Wunderground v.1.15,2013-08-24 06:58:00,
2013-08-24 03:04:00,58.4,58.1,30.25,West,272,0.0,0.0,99,0.00,,,0.00,0,Wunderground v.1.15,2013-08-24 07:04:00,
2013-08-24 03:09:00,58.2,57.9,30.25,West,271,0.0,0.0,99,0.00,,,0.00,0,Wunderground v.1.15,2013-08-24 07:09:00,
2013-08-24 03:14:00,58.1,57.8,30.26,West,271,0.0,0.0,99,0.00,,,0.00,0,Wunderground v.1.15,2013-08-24 07:14:00,
2013-08-24 03:20:00,57.9,57.6,30.26,West,270,0.0,0.0,99,0.00,,,0.00,0,Wunderground v.1.15,2013-08-24 07:20:00,
2013-08-24 03:25:00,57.9,57.6,30.26,West,271,0.0,1.0,99,0.00,,,0.00,0,Wunderground v.1.15,2013-08-24 07:25:00,
2013-08-24 03:31:00,57.7,57.4,30.26,West,270,0.0,0.0,99,0.00,,,0.00,0,Wunderground v.1.15,2013-08-24 07:31:00,
2013-08-24 03:36:00,57.6,57.3,30.27,West,272,0.0,0.0,99,0.00,,,0.00,0,Wunderground v.1.15,2013-08-24 07:36:00,
2013-08-24 03:41:00,57.5,57.2,30.27,West,269,0.0,0.0,99,0.00,,,0.00,0,Wunderground v.1.15,2013-08-24 07:41:00,
2013-08-24 03:46:00,57.4,57.1,30.27,West,272,0.0,0.0,99,0.00,,,0.00,0,Wunderground v.1.15,2013-08-24 07:46:00,
2013-08-24 03:52:00,57.3,57.0,30.27,West,268,0.0,0.0,99,0.00,,,0.00,0,Wunderground v.1.15,2013-08-24 07:52:00,
2013-08-24 03:57:00,57.2,56.9,30.27,West,271,0.0,0.0,99,0.00,,,0.00,0,Wunderground v.1.15,2013-08-24 07:57:00,
2013-08-24 04:03:00,57.2,56.9,30.28,West,270,0.0,0.0,99,0.00,,,0.00,0,Wunderground v.1.15,2013-08-24 08:03:00,
2013-08-24 04:08:00,57.2,56.9,30.28,West,272,0.0,0.0,99,0.00,,,0.00,0,Wunderground v.1.15,2013-08-24 08:08:00,
2013-08-24 04:14:00,57.2,56.9,30.28,West,271,0.0,2.0,99,0.00,,,0.00,0,Wunderground v.1.15,2013-08-24 08:14:00,
2013-08-24 04:19:00,57.1,56.8,30.29,West,273,0.0,2.0,99,0.00,,,0.00,0,Wunderground v.1.15,2013-08-24 08:19:00,
2013-08-24 04:24:00,57.1,56.8,30.29,West,271,1.0,2.0,99,0.00,,,0.00,0,Wunderground v.1.15,2013-08-24 08:24:00,
2013-08-24 04:30:00,57.1,56.8,30.29,West,271,0.0,1.0,99,0.00,,,0.00,0,Wunderground v.1.15,2013-08-24 08:30:00,
2013-08-24 04:35:00,57.0,56.7,30.29,West,273,1.0,1.0,99,0.00,,,0.00,0,Wunderground v.1.15,2013-08-24 08:35:00,
2013-08-24 04:40:00,56.8,56.5,30.29,West,271,1.0,1.0,99,0.00,,,0.00,0,Wunderground v.1.15,2013-08-24 08:40:00,
2013-08-24 04:46:00,56.7,56.4,30.29,West,272,1.0,1.0,99,0.00,,,0.00,0,Wunderground v.1.15,2013-08-24 08:46:00,
2013-08-24 04:51:00,56.5,56.2,30.29,West,270,0.0,0.0,99,0.00,,,0.00,0,Wunderground v.1.15,2013-08-24 08:51:00,
2013-08-24 04:56:00,56.4,56.1,30.29,West,269,1.0,2.0,99,0.00,,,0.00,0,Wunderground v.1.15,2013-08-24 08:56:00,
2013-08-24 05:02:00,56.4,56.1,30.29,West,270,1.0,1.0,99,0.00,,,0.00,0,Wunderground v.1.15,2013-08-24 09:02:00,
2013-08-24 05:08:00,56.4,56.4,30.30,West,271,1.0,3.0,100,0.00,,,0.00,0,Wunderground v.1.15,2013-08-24 09:08:00,
2013-08-24 05:13:00,56.4,56.4,30.30,West,272,1.0,1.0,100,0.00,,,0.00,0,Wunderground v.1.15,2013-08-24 09:13:00,
2013-08-24 05:18:00,56.4,56.4,30.30,West,267,0.0,1.0,100,0.00,,,0.00,0,Wunderground v.1.15,2013-08-24 09:18:00,
2013-08-24 05:24:00,56.4,56.4,30.30,West,270,0.0,0.0,100,0.00,,,0.00,0,Wunderground v.1.15,2013-08-24 09:24:00,
2013-08-24 05:29:00,56.4,56.4,30.30,West,269,0.0,1.0,100,0.00,,,0.00,0,Wunderground v.1.15,2013-08-24 09:29:00,
2013-08-24 05:34:00,56.4,56.4,30.30,West,267,0.0,0.0,100,0.00,,,0.00,0,Wunderground v.1.15,2013-08-24 09:34:00,
2013-08-24 05:39:00,56.5,56.5,30.30,West,267,0.0,1.0,100,0.00,,,0.00,0,Wunderground v.1.15,2013-08-24 09:39:00,
2013-08-24 05:45:00,56.6,56.6,30.31,West,271,1.0,1.0,100,0.00,,,0.00,0,Wunderground v.1.15,2013-08-24 09:45:00,
2013-08-24 05:50:00,56.8,56.8,30.31,West,269,0.0,0.0,100,0.00,,,0.00,0,Wunderground v.1.15,2013-08-24 09:50:00,
2013-08-24 05:56:00,57.0,57.0,30.31,West,269,0.0,1.0,100,0.00,,,0.00,0,Wunderground v.1.15,2013-08-24 09:56:00,
2013-08-24 06:02:00,57.3,57.3,30.31,West,269,0.0,1.0,100,0.00,,,0.00,0,Wunderground v.1.15,2013-08-24 10:02:00,
2013-08-24 06:07:00,57.4,57.4,30.32,West,273,0.0,1.0,100,0.00,,,0.00,0,Wunderground v.1.15,2013-08-24 10:07:00,
2013-08-24 06:12:00,57.5,57.5,30.32,West,268,0.0,1.0,100,0.00,,,0.00,0,Wunderground v.1.15,2013-08-24 10:12:00,
2013-08-24 06:17:00,57.6,57.6,30.32,West,269,0.0,1.0,100,0.00,,,0.00,0,Wunderground v.1.15,2013-08-24 10:17:00,
2013-08-24 06:23:00,57.7,57.7,30.32,West,269,0.0,0.0,100,0.00,,,0.00,0,Wunderground v.1.15,2013-08-24 10:23:00,
2013-08-24 06:28:00,57.8,57.8,30.32,West,269,0.0,0.0,100,0.00,,,0.00,0,Wunderground v.1.15,2013-08-24 10:28:00,
2013-08-24 06:34:00,57.9,57.9,30.33,West,269,0.0,0.0,100,0.00,,,0.00,0,Wunderground v.1.15,2013-08-24 10:34:00,
2013-08-24 06:39:00,58.0,58.0,30.33,West,269,0.0,0.0,100,0.00,,,0.00,5,Wunderground v.1.15,2013-08-24 10:39:00,
2013-08-24 06:44:00,58.1,58.1,30.33,West,270,0.0,0.0,100,0.00,,,0.00,7,Wunderground v.1.15,2013-08-24 10:44:00,
2013-08-24 06:50:00,58.2,58.2,30.33,West,271,0.0,0.0,100,0.00,,,0.00,11,Wunderground v.1.15,2013-08-24 10:50:00,
2013-08-24 06:55:00,58.3,58.3,30.33,West,270,0.0,0.0,100,0.00,,,0.00,12,Wunderground v.1.15,2013-08-24 10:55:00,
2013-08-24 07:00:00,58.3,58.3,30.34,West,275,0.0,0.0,100,0.00,,,0.00,14,Wunderground v.1.15,2013-08-24 11:00:00,
2013-08-24 07:06:00,58.4,58.4,30.34,North,360,0.0,0.0,100,0.00,,,0.00,23,Wunderground v.1.15,2013-08-24 11:06:00,
2013-08-24 07:11:00,58.4,58.4,30.34,West,266,0.0,0.0,100,0.00,,,0.00,28,Wunderground v.1.15,2013-08-24 11:11:00,
2013-08-24 07:17:00,58.5,58.5,30.34,North,360,0.0,0.0,100,0.00,,,0.00,30,Wunderground v.1.15,2013-08-24 11:17:00,
2013-08-24 07:22:00,58.7,58.7,30.35,West,270,0.0,0.0,100,0.00,,,0.00,37,Wunderground v.1.15,2013-08-24 11:22:00,
2013-08-24 07:27:00,58.8,58.8,30.35,West,271,0.0,0.0,100,0.00,,,0.00,39,Wunderground v.1.15,2013-08-24 11:27:00,
2013-08-24 07:33:00,58.9,58.9,30.35,West,268,0.0,0.0,100,0.00,,,0.00,35,Wunderground v.1.15,2013-08-24 11:33:00,
2013-08-24 07:38:00,59.1,59.1,30.35,West,271,0.0,1.0,100,0.00,,,0.00,33,Wunderground v.1.15,2013-08-24 11:38:00,
2013-08-24 07:43:00,59.2,59.2,30.35,North,360,0.0,0.0,100,0.00,,,0.00,46,Wunderground v.1.15,2013-08-24 11:43:00,
2013-08-24 07:49:00,59.3,59.3,30.35,North,360,0.0,1.0,100,0.00,,,0.00,54,Wunderground v.1.15,2013-08-24 11:49:00,
2013-08-24 07:54:00,59.4,59.4,30.35,West,267,0.0,0.0,100,0.00,,,0.00,62,Wunderground v.1.15,2013-08-24 11:54:00,
2013-08-24 07:59:00,59.5,59.5,30.35,North,360,0.0,0.0,100,0.00,,,0.00,86,Wunderground v.1.15,2013-08-24 11:59:00,
2013-08-24 08:05:00,59.6,59.6,30.35,West,269,0.0,0.0,100,0.00,,,0.00,123,Wunderground v.1.15,2013-08-24 12:05:00,
2013-08-24 08:11:00,59.7,59.7,30.35,West,268,0.0,0.0,100,0.00,,,0.00,123,Wunderground v.1.15,2013-08-24 12:11:00,
2013-08-24 08:16:00,59.7,59.7,30.36,West,268,0.0,0.0,100,0.00,,,0.00,125,Wunderground v.1.15,2013-08-24 12:16:00,
2013-08-24 08:21:00,59.9,59.9,30.36,West,269,0.0,0.0,100,0.00,,,0.00,130,Wunderground v.1.15,2013-08-24 12:21:00,
2013-08-24 08:26:00,60.1,60.1,30.36,West,269,0.0,0.0,100,0.00,,,0.00,162,Wunderground v.1.15,2013-08-24 12:26:00,
2013-08-24 08:32:00,60.3,60.3,30.36,West,271,0.0,0.0,100,0.00,,,0.00,153,Wunderground v.1.15,2013-08-24 12:32:00,
2013-08-24 08:37:00,60.5,60.5,30.36,West,269,0.0,0.0,100,0.00,,,0.00,172,Wunderground v.1.15,2013-08-24 12:37:00,
2013-08-24 08:42:00,60.7,60.7,30.36,North,360,0.0,0.0,100,0.00,,,0.00,160,Wunderground v.1.15,2013-08-24 12:42:00,
2013-08-24 08:48:00,60.8,60.5,30.37,West,269,0.0,0.0,99,0.00,,,0.00,163,Wunderground v.1.15,2013-08-24 12:48:00,
2013-08-24 08:53:00,61.1,60.8,30.37,West,269,0.0,0.0,99,0.00,,,0.00,165,Wunderground v.1.15,2013-08-24 12:53:00,
2013-08-24 08:58:00,61.3,60.7,30.37,West,271,0.0,0.0,98,0.00,,,0.00,163,Wunderground v.1.15,2013-08-24 12:58:00,
2013-08-24 09:04:00,61.8,61.2,30.38,West,269,0.0,0.0,98,0.00,,,0.00,174,Wunderground v.1.15,2013-08-24 13:04:00,
2013-08-24 09:10:00,62.0,61.1,30.38,North,360,0.0,0.0,97,0.00,,,0.00,172,Wunderground v.1.15,2013-08-24 13:10:00,
2013-08-24 09:15:00,62.3,61.1,30.38,West,265,0.0,0.0,96,0.00,,,0.00,174,Wunderground v.1.15,2013-08-24 13:15:00,
2013-08-24 09:20:00,62.5,61.3,30.38,West,271,0.0,0.0,96,0.00,,,0.00,185,Wunderground v.1.15,2013-08-24 13:20:00,
2013-08-24 09:26:00,62.8,61.6,30.38,West,267,0.0,0.0,96,0.00,,,0.00,214,Wunderground v.1.15,2013-08-24 13:26:00,
2013-08-24 09:31:00,63.2,62.0,30.39,West,268,0.0,0.0,96,0.00,,,0.00,244,Wunderground v.1.15,2013-08-24 13:31:00,
2013-08-24 09:36:00,63.5,62.0,30.39,North,360,0.0,0.0,95,0.00,,,0.00,272,Wunderground v.1.15,2013-08-24 13:36:00,
2013-08-24 09:41:00,63.7,62.2,30.39,West,271,0.0,1.0,95,0.00,,,0.00,302,Wunderground v.1.15,2013-08-24 13:41:00,
2013-08-24 09:47:00,64.2,63.0,30.39,West,271,0.0,1.0,96,0.00,,,0.00,427,Wunderground v.1.15,2013-08-24 13:47:00,
2013-08-24 09:52:00,64.5,62.7,30.39,North,360,0.0,2.0,94,0.00,,,0.00,420,Wunderground v.1.15,2013-08-24 13:52:00,
2013-08-24 09:58:00,65.0,62.9,30.39,SE,144,0.0,2.0,93,0.00,,,0.00,357,Wunderground v.1.15,2013-08-24 13:58:00,
2013-08-24 10:04:00,65.3,62.9,30.39,SSE,148,1.0,2.0,92,0.00,,,0.00,415,Wunderground v.1.15,2013-08-24 14:04:00,
2013-08-24 10:09:00,65.8,63.4,30.40,South,176,1.0,4.0,92,0.00,,,0.00,413,Wunderground v.1.15,2013-08-24 14:09:00,
2013-08-24 10:14:00,66.4,64.3,30.40,South,173,0.0,1.0,93,0.00,,,0.00,490,Wunderground v.1.15,2013-08-24 14:14:00,
2013-08-24 10:19:00,67.3,64.6,30.40,South,182,0.0,2.0,91,0.00,,,0.00,598,Wunderground v.1.15,2013-08-24 14:19:00,
2013-08-24 10:25:00,67.8,64.4,30.39,SSE,148,1.0,5.0,89,0.00,,,0.00,705,Wunderground v.1.15,2013-08-24 14:25:00,
2013-08-24 10:30:00,68.1,63.8,30.40,SE,146,2.0,2.0,86,0.00,,,0.00,708,Wunderground v.1.15,2013-08-24 14:30:00,
2013-08-24 10:35:00,68.3,64.6,30.40,SE,146,1.0,2.0,88,0.00,,,0.00,729,Wunderground v.1.15,2013-08-24 14:35:00,
2013-08-24 10:41:00,68.7,64.7,30.39,SSE,148,2.0,3.0,87,0.00,,,0.00,731,Wunderground v.1.15,2013-08-24 14:41:00,
2013-08-24 10:46:00,69.4,64.7,30.39,SSE,147,2.0,3.0,85,0.00,,,0.00,729,Wunderground v.1.15,2013-08-24 14:46:00,
2013-08-24 10:51:00,69.9,64.2,30.39,SSE,153,2.0,2.0,82,0.00,,,0.00,772,Wunderground v.1.15,2013-08-24 14:51:00,
2013-08-24 10:56:00,70.2,64.1,30.40,SSE,147,1.0,2.0,81,0.00,,,0.00,763,Wunderground v.1.15,2013-08-24 14:56:00,
2013-08-24 11:02:00,70.7,65.3,30.39,SE,140,2.0,3.0,83,0.00,,,0.00,780,Wunderground v.1.15,2013-08-24 15:02:00,
2013-08-24 11:08:00,71.6,66.2,30.39,SSE,150,2.0,3.0,83,0.00,,,0.00,773,Wunderground v.1.15,2013-08-24 15:08:00,
2013-08-24 11:13:00,71.8,64.2,30.39,SSE,149,2.0,3.0,77,0.00,,,0.00,791,Wunderground v.1.15,2013-08-24 15:13:00,
2013-08-24 11:18:00,71.6,65.1,30.39,East,92,2.0,4.0,80,0.00,,,0.00,791,Wunderground v.1.15,2013-08-24 15:18:00,
2013-08-24 11:24:00,71.0,64.5,30.39,East,81,2.0,3.0,80,0.00,,,0.00,812,Wunderground v.1.15,2013-08-24 15:24:00,
2013-08-24 11:29:00,70.8,64.7,30.39,SE,140,2.0,3.0,81,0.00,,,0.00,810,Wunderground v.1.15,2013-08-24 15:29:00,
2013-08-24 11:34:00,71.0,64.5,30.38,East,94,2.0,5.0,80,0.00,,,0.00,793,Wunderground v.1.15,2013-08-24 15:34:00,
2013-08-24 11:40:00,71.2,64.0,30.38,SSE,163,2.0,2.0,78,0.00,,,0.00,817,Wunderground v.1.15,2013-08-24 15:40:00,
2013-08-24 11:45:00,71.6,65.5,30.38,SE,146,1.0,3.0,81,0.00,,,0.00,840,Wunderground v.1.15,2013-08-24 15:45:00,
2013-08-24 11:50:00,71.6,65.5,30.38,East,86,2.0,2.0,81,0.00,,,0.00,849,Wunderground v.1.15,2013-08-24 15:50:00,
2013-08-24 11:56:00,71.8,65.3,30.38,South,169,1.0,5.0,80,0.00,,,0.00,823,Wunderground v.1.15,2013-08-24 15:56:00,
2013-08-24 12:02:00,72.6,67.1,30.38,ENE,67,1.0,2.0,83,0.00,,,0.00,816,Wunderground v.1.15,2013-08-24 16:02:00,
2013-08-24 12:07:00,72.8,66.3,30.38,East,101,2.0,5.0,80,0.00,,,0.00,853,Wunderground v.1.15,2013-08-24 16:07:00,
2013-08-24 12:12:00,73.1,66.6,30.38,SE,130,2.0,3.0,80,0.00,,,0.00,860,Wunderground v.1.15,2013-08-24 16:12:00,
2013-08-24 12:17:00,73.4,66.1,30.38,ESE,104,2.0,3.0,78,0.00,,,0.00,895,Wunderground v.1.15,2013-08-24 16:17:00,
2013-08-24 12:23:00,73.6,65.9,30.37,ENE,76,1.0,2.0,77,0.00,,,0.00,909,Wunderground v.1.15,2013-08-24 16:23:00,
2013-08-24 12:28:00,73.7,66.4,30.37,ESE,115,1.0,2.0,78,0.00,,,0.00,888,Wunderground v.1.15,2013-08-24 16:28:00,
2013-08-24 12:34:00,74.2,66.9,30.37,ENE,64,2.0,4.0,78,0.00,,,0.00,856,Wunderground v.1.15,2013-08-24 16:34:00,
2013-08-24 12:39:00,74.2,66.5,30.37,East,90,3.0,5.0,77,0.00,,,0.00,893,Wunderground v.1.15,2013-08-24 16:39:00,
2013-08-24 12:44:00,74.3,67.4,30.37,South,174,2.0,3.0,79,0.00,,,0.00,879,Wunderground v.1.15,2013-08-24 16:44:00,
2013-08-24 12:50:00,74.6,67.3,30.37,East,90,2.0,2.0,78,0.00,,,0.00,905,Wunderground v.1.15,2013-08-24 16:50:00,
2013-08-24 12:55:00,75.0,67.7,30.37,East,82,2.0,3.0,78,0.00,,,0.00,921,Wunderground v.1.15,2013-08-24 16:55:00,
2013-08-24 13:00:00,75.0,68.0,30.36,East,79,3.0,3.0,79,0.00,,,0.00,944,Wunderground v.1.15,2013-08-24 17:00:00,
2013-08-24 13:06:00,74.9,68.3,30.37,SE,134,3.0,5.0,80,0.00,,,0.00,914,Wunderground v.1.15,2013-08-24 17:06:00,
2013-08-24 13:11:00,75.4,68.1,30.37,ESE,107,3.0,5.0,78,0.00,,,0.00,909,Wunderground v.1.15,2013-08-24 17:11:00,
2013-08-24 13:17:00,76.0,67.5,30.36,ESE,115,3.0,5.0,75,0.00,,,0.00,863,Wunderground v.1.15,2013-08-24 17:17:00,
2013-08-24 13:22:00,76.3,68.6,30.37,South,171,2.0,5.0,77,0.00,,,0.00,896,Wunderground v.1.15,2013-08-24 17:22:00,
2013-08-24 13:28:00,77.1,70.1,30.36,South,175,2.0,7.0,79,0.00,,,0.00,911,Wunderground v.1.15,2013-08-24 17:28:00,
2013-08-24 13:33:00,78.1,68.7,30.36,SW,231,3.0,3.0,73,0.00,,,0.00,867,Wunderground v.1.15,2013-08-24 17:33:00,
2013-08-24 13:38:00,78.2,68.8,30.36,SE,138,2.0,6.0,73,0.00,,,0.00,856,Wunderground v.1.15,2013-08-24 17:38:00,
2013-08-24 13:43:00,78.2,68.8,30.36,SW,222,3.0,5.0,73,0.00,,,0.00,867,Wunderground v.1.15,2013-08-24 17:43:00,
2013-08-24 13:49:00,78.6,68.8,30.36,SW,229,2.0,5.0,72,0.00,,,0.00,856,Wunderground v.1.15,2013-08-24 17:49:00,
2013-08-24 13:54:00,78.4,69.0,30.36,South,189,2.0,4.0,73,0.00,,,0.00,861,Wunderground v.1.15,2013-08-24 17:54:00,
2013-08-24 13:59:00,78.9,68.3,30.35,SE,130,3.0,6.0,70,0.00,,,0.00,847,Wunderground v.1.15,2013-08-24 17:59:00,
2013-08-24 14:05:00,79.1,68.1,30.35,NE,47,2.0,3.0,69,0.00,,,0.00,853,Wunderground v.1.15,2013-08-24 18:05:00,
2013-08-24 14:11:00,79.4,69.2,30.35,SSE,155,2.0,5.0,71,0.00,,,0.00,860,Wunderground v.1.15,2013-08-24 18:11:00,
2013-08-24 14:16:00,80.0,68.9,30.35,South,178,4.0,8.0,69,0.00,,,0.00,853,Wunderground v.1.15,2013-08-24 18:16:00,
2013-08-24 14:21:00,80.6,68.6,30.35,SSE,159,4.0,7.0,67,0.00,,,0.00,837,Wunderground v.1.15,2013-08-24 18:21:00,
2013-08-24 14:27:00,80.9,68.0,30.35,South,174,4.0,7.0,65,0.00,,,0.00,824,Wunderground v.1.15,2013-08-24 18:27:00,
2013-08-24 14:32:00,80.9,68.5,30.35,East,85,4.0,5.0,66,0.00,,,0.00,828,Wunderground v.1.15,2013-08-24 18:32:00,
2013-08-24 14:37:00,80.5,67.6,30.35,East,96,3.0,5.0,65,0.00,,,0.00,775,Wunderground v.1.15,2013-08-24 18:37:00,
2013-08-24 14:43:00,79.6,66.8,30.35,SE,132,3.0,4.0,65,0.00,,,0.00,236,Wunderground v.1.15,2013-08-24 18:43:00,
2013-08-24 14:48:00,79.2,66.0,30.35,East,95,3.0,5.0,64,0.00,,,0.00,172,Wunderground v.1.15,2013-08-24 18:48:00,
2013-08-24 14:53:00,79.4,68.3,30.34,SSW,202,3.0,4.0,69,0.00,,,0.00,800,Wunderground v.1.15,2013-08-24 18:53:00,
2013-08-24 14:58:00,80.5,70.6,30.34,SSE,156,4.0,5.0,72,0.00,,,0.00,784,Wunderground v.1.15,2013-08-24 18:58:00,
2013-08-24 15:04:00,81.1,69.5,30.34,East,101,3.0,5.0,68,0.00,,,0.00,758,Wunderground v.1.15,2013-08-24 19:04:00,
2013-08-24 15:10:00,80.9,68.9,30.34,ESE,115,4.0,4.0,67,0.00,,,0.00,756,Wunderground v.1.15,2013-08-24 19:10:00,
2013-08-24 15:15:00,80.4,67.1,30.34,SE,126,4.0,4.0,64,0.00,,,0.00,768,Wunderground v.1.15,2013-08-24 19:15:00,
2013-08-24 15:21:00,80.2,68.2,30.34,East,95,3.0,6.0,67,0.00,,,0.00,740,Wunderground v.1.15,2013-08-24 19:21:00,
2013-08-24 15:26:00,80.0,68.1,30.34,SE,138,3.0,6.0,67,0.00,,,0.00,726,Wunderground v.1.15,2013-08-24 19:26:00,
2013-08-24 15:31:00,79.9,67.1,30.34,SSE,148,3.0,3.0,65,0.00,,,0.00,707,Wunderground v.1.15,2013-08-24 19:31:00,
2013-08-24 15:36:00,80.2,68.7,30.34,South,184,2.0,3.0,68,0.00,,,0.00,715,Wunderground v.1.15,2013-08-24 19:36:00,
2013-08-24 15:42:00,80.3,68.3,30.34,East,92,3.0,6.0,67,0.00,,,0.00,691,Wunderground v.1.15,2013-08-24 19:42:00,
2013-08-24 15:47:00,80.4,67.1,30.34,NNE,24,4.0,6.0,64,0.00,,,0.00,663,Wunderground v.1.15,2013-08-24 19:47:00,
2013-08-24 15:52:00,80.3,66.6,30.34,NE,51,3.0,4.0,63,0.00,,,0.00,207,Wunderground v.1.15,2013-08-24 19:52:00,
2013-08-24 15:58:00,80.2,67.8,30.34,ENE,73,2.0,4.0,66,0.00,,,0.00,264,Wunderground v.1.15,2013-08-24 19:58:00,
2013-08-24 16:04:00,79.9,66.6,30.34,ENE,70,2.0,2.0,64,0.00,,,0.00,612,Wunderground v.1.15,2013-08-24 20:04:00,
2013-08-24 16:09:00,79.9,67.1,30.34,East,82,2.0,6.0,65,0.00,,,0.00,629,Wunderground v.1.15,2013-08-24 20:09:00,
2013-08-24 16:14:00,80.0,66.3,30.34,ESE,111,3.0,5.0,63,0.00,,,0.00,596,Wunderground v.1.15,2013-08-24 20:14:00,
2013-08-24 16:20:00,80.0,65.8,30.34,SE,124,5.0,5.0,62,0.00,,,0.00,267,Wunderground v.1.15,2013-08-24 20:20:00,
2013-08-24 16:25:00,79.8,66.1,30.34,SE,128,3.0,5.0,63,0.00,,,0.00,388,Wunderground v.1.15,2013-08-24 20:25:00,
2013-08-24 16:30:00,80.0,67.6,30.34,ENE,70,1.0,1.0,66,0.00,,,0.00,499,Wunderground v.1.15,2013-08-24 20:30:00,
2013-08-24 16:36:00,80.3,67.9,30.34,ENE,57,3.0,4.0,66,0.00,,,0.00,534,Wunderground v.1.15,2013-08-24 20:36:00,
2013-08-24 16:41:00,80.5,65.8,30.33,ENE,60,3.0,3.0,61,0.00,,,0.00,526,Wunderground v.1.15,2013-08-24 20:41:00,
2013-08-24 16:47:00,80.7,66.0,30.33,East,86,3.0,5.0,61,0.00,,,0.00,503,Wunderground v.1.15,2013-08-24 20:47:00,
2013-08-24 16:52:00,81.0,65.3,30.34,ESE,123,4.0,5.0,59,0.00,,,0.00,473,Wunderground v.1.15,2013-08-24 20:52:00,
2013-08-24 16:57:00,81.2,66.0,30.34,ESE,104,5.0,6.0,60,0.00,,,0.00,510,Wunderground v.1.15,2013-08-24 20:57:00,
2013-08-24 17:03:00,81.1,64.4,30.34,East,86,3.0,4.0,57,0.00,,,0.00,513,Wunderground v.1.15,2013-08-24 21:03:00,
2013-08-24 17:08:00,81.3,65.1,30.34,ESE,118,1.0,4.0,58,0.00,,,0.00,526,Wunderground v.1.15,2013-08-24 21:08:00,
2013-08-24 17:14:00,81.5,66.3,30.33,East,89,2.0,3.0,60,0.00,,,0.00,503,Wunderground v.1.15,2013-08-24 21:14:00,
2013-08-24 17:19:00,81.1,64.4,30.33,ESE,102,3.0,7.0,57,0.00,,,0.00,323,Wunderground v.1.15,2013-08-24 21:19:00,
2013-08-24 17:24:00,80.5,63.9,30.33,ENE,76,4.0,7.0,57,0.00,,,0.00,403,Wunderground v.1.15,2013-08-24 21:24:00,
2013-08-24 17:30:00,80.4,63.3,30.33,ENE,78,4.0,4.0,56,0.00,,,0.00,176,Wunderground v.1.15,2013-08-24 21:30:00,
2013-08-24 17:35:00,80.1,63.5,30.34,ENE,65,4.0,4.0,57,0.00,,,0.00,172,Wunderground v.1.15,2013-08-24 21:35:00,
2013-08-24 17:40:00,79.8,64.2,30.33,ENE,71,2.0,2.0,59,0.00,,,0.00,176,Wunderground v.1.15,2013-08-24 21:40:00,
2013-08-24 17:46:00,79.8,65.2,30.33,ESE,119,1.0,3.0,61,0.00,,,0.00,348,Wunderground v.1.15,2013-08-24 21:46:00,
2013-08-24 17:51:00,80.0,63.9,30.33,East,91,2.0,2.0,58,0.00,,,0.00,297,Wunderground v.1.15,2013-08-24 21:51:00,
2013-08-24 17:57:00,79.8,64.7,30.33,East,99,2.0,3.0,60,0.00,,,0.00,162,Wunderground v.1.15,2013-08-24 21:57:00,
2013-08-24 18:03:00,79.5,65.3,30.33,ESE,104,2.0,2.0,62,0.00,,,0.00,116,Wunderground v.1.15,2013-08-24 22:03:00,
2013-08-24 18:08:00,79.3,66.5,30.34,ESE,106,1.0,3.0,65,0.00,,,0.00,125,Wunderground v.1.15,2013-08-24 22:08:00,
2013-08-24 18:13:00,78.9,65.2,30.34,ESE,105,1.0,2.0,63,0.00,,,0.00,114,Wunderground v.1.15,2013-08-24 22:13:00,
2013-08-24 18:18:00,78.5,66.6,30.34,ESE,105,1.0,2.0,67,0.00,,,0.00,123,Wunderground v.1.15,2013-08-24 22:18:00,
2013-08-24 18:24:00,77.9,66.5,30.33,NW,322,1.0,3.0,68,0.00,,,0.00,84,Wunderground v.1.15,2013-08-24 22:24:00,
2013-08-24 18:29:00,77.5,66.9,30.34,NW,323,2.0,4.0,70,0.00,,,0.00,79,Wunderground v.1.15,2013-08-24 22:29:00,
2013-08-24 18:34:00,77.0,66.5,30.34,North,360,3.0,5.0,70,0.00,,,0.00,67,Wunderground v.1.15,2013-08-24 22:34:00,
2013-08-24 18:40:00,76.3,67.0,30.34,North,360,4.0,5.0,73,0.00,,,0.00,53,Wunderground v.1.15,2013-08-24 22:40:00,
2013-08-24 18:45:00,75.5,66.6,30.34,NW,319,5.0,6.0,74,0.00,,,0.00,49,Wunderground v.1.15,2013-08-24 22:45:00,
2013-08-24 18:50:00,74.8,66.3,30.34,NW,323,6.0,6.0,75,0.00,,,0.00,47,Wunderground v.1.15,2013-08-24 22:50:00,
2013-08-24 18:56:00,74.1,65.7,30.34,NNW,327,6.0,7.0,75,0.00,,,0.00,54,Wunderground v.1.15,2013-08-24 22:56:00,
2013-08-24 19:02:00,73.5,65.1,30.34,North,360,5.0,6.0,75,0.00,,,0.00,49,Wunderground v.1.15,2013-08-24 23:02:00,
2013-08-24 19:07:00,73.1,65.1,30.34,NW,305,5.0,6.0,76,0.00,,,0.00,37,Wunderground v.1.15,2013-08-24 23:07:00,
2013-08-24 19:13:00,72.7,65.4,30.34,North,360,5.0,5.0,78,0.00,,,0.00,35,Wunderground v.1.15,2013-08-24 23:13:00,
2013-08-24 19:18:00,72.5,65.2,30.34,North,360,5.0,6.0,78,0.00,,,0.00,37,Wunderground v.1.15,2013-08-24 23:18:00,
2013-08-24 19:23:00,72.2,64.2,30.34,NW,313,5.0,6.0,76,0.00,,,0.00,28,Wunderground v.1.15,2013-08-24 23:23:00,
2013-08-24 19:28:00,72.0,65.1,30.34,NW,304,4.0,6.0,79,0.00,,,0.00,21,Wunderground v.1.15,2013-08-24 23:28:00,
2013-08-24 19:34:00,71.8,64.6,30.34,NW,312,4.0,5.0,78,0.00,,,0.00,16,Wunderground v.1.15,2013-08-24 23:34:00,
2013-08-24 19:39:00,71.4,64.5,30.34,North,360,3.0,5.0,79,0.00,,,0.00,12,Wunderground v.1.15,2013-08-24 23:39:00,
2013-08-24 19:45:00,71.0,64.9,30.34,NW,307,2.0,3.0,81,0.00,,,0.00,11,Wunderground v.1.15,2013-08-24 23:45:00,
2013-08-24 19:50:00,70.7,64.6,30.34,North,360,2.0,2.0,81,0.00,,,0.00,9,Wunderground v.1.15,2013-08-24 23:50:00,
2013-08-24 19:55:00,70.4,64.6,30.35,NNW,327,2.0,2.0,82,0.00,,,0.00,5,Wunderground v.1.15,2013-08-24 23:55:00,
2013-08-24 20:00:00,70.1,65.0,30.35,NW,309,2.0,2.0,84,0.00,,,0.00,5,Wunderground v.1.15,2013-08-25 00:00:00,
2013-08-24 20:06:00,69.5,64.5,30.35,NW,308,3.0,3.0,84,0.00,,,0.00,0,Wunderground v.1.15,2013-08-25 00:06:00,
2013-08-24 20:12:00,69.1,64.4,30.36,NW,311,3.0,5.0,85,0.00,,,0.00,0,Wunderground v.1.15,2013-08-25 00:12:00,
2013-08-24 20:17:00,68.7,64.0,30.36,NW,309,4.0,6.0,85,0.00,,,0.00,0,Wunderground v.1.15,2013-08-25 00:17:00,
2013-08-24 20:23:00,68.4,64.0,30.36,NW,306,3.0,5.0,86,0.00,,,0.00,0,Wunderground v.1.15,2013-08-25 00:23:00,
2013-08-24 20:28:00,67.9,63.6,30.36,WNW,298,3.0,5.0,86,0.00,,,0.00,0,Wunderground v.1.15,2013-08-25 00:28:00,
2013-08-24 20:34:00,67.5,63.5,30.36,WNW,297,2.0,3.0,87,0.00,,,0.00,0,Wunderground v.1.15,2013-08-25 00:34:00,
2013-08-24 20:39:00,67.1,63.4,30.37,WNW,300,2.0,3.0,88,0.00,,,0.00,0,Wunderground v.1.15,2013-08-25 00:39:00,
2013-08-24 20:44:00,66.8,63.1,30.37,WNW,298,1.0,2.0,88,0.00,,,0.00,0,Wunderground v.1.15,2013-08-25 00:44:00,
2013-08-24 20:49:00,66.5,62.8,30.37,WNW,300,1.0,2.0,88,0.00,,,0.00,0,Wunderground v.1.15,2013-08-25 00:49:00,
2013-08-24 20:55:00,66.2,62.9,30.38,WNW,298,0.0,2.0,89,0.00,,,0.00,0,Wunderground v.1.15,2013-08-25 00:55:00,
2013-08-24 21:00:00,65.9,62.6,30.38,WNW,300,0.0,0.0,89,0.00,,,0.00,0,Wunderground v.1.15,2013-08-25 01:00:00,
2013-08-24 21:06:00,65.6,62.6,30.38,WNW,299,1.0,2.0,90,0.00,,,0.00,0,Wunderground v.1.15,2013-08-25 01:06:00,
2013-08-24 21:12:00,65.5,62.5,30.39,WNW,299,0.0,0.0,90,0.00,,,0.00,0,Wunderground v.1.15,2013-08-25 01:12:00,
2013-08-24 21:17:00,65.2,62.5,30.39,WNW,298,0.0,0.0,91,0.00,,,0.00,0,Wunderground v.1.15,2013-08-25 01:17:00,
2013-08-24 21:22:00,65.0,62.3,30.39,WNW,299,0.0,0.0,91,0.00,,,0.00,0,Wunderground v.1.15,2013-08-25 01:22:00,
2013-08-24 21:27:00,64.8,62.1,30.39,WNW,298,0.0,0.0,91,0.00,,,0.00,0,Wunderground v.1.15,2013-08-25 01:27:00,
2013-08-24 21:33:00,64.5,62.1,30.39,WNW,300,0.0,1.0,92,0.00,,,0.00,0,Wunderground v.1.15,2013-08-25 01:33:00,
2013-08-24 21:38:00,64.3,61.9,30.39,WNW,300,0.0,1.0,92,0.00,,,0.00,0,Wunderground v.1.15,2013-08-25 01:38:00,
2013-08-24 21:44:00,64.2,62.1,30.40,WSW,247,1.0,2.0,93,0.00,,,0.00,0,Wunderground v.1.15,2013-08-25 01:44:00,
2013-08-24 21:49:00,64.0,61.9,30.40,WSW,245,1.0,2.0,93,0.00,,,0.00,0,Wunderground v.1.15,2013-08-25 01:49:00,
2013-08-24 21:54:00,63.9,61.8,30.40,WSW,250,0.0,0.0,93,0.00,,,0.00,0,Wunderground v.1.15,2013-08-25 01:54:00,
2013-08-24 22:00:00,63.6,61.5,30.40,WSW,247,0.0,2.0,93,0.00,,,0.00,0,Wunderground v.1.15,2013-08-25 02:00:00,
2013-08-24 22:06:00,63.4,61.6,30.40,WSW,248,1.0,3.0,94,0.00,,,0.00,0,Wunderground v.1.15,2013-08-25 02:06:00,
2013-08-24 22:11:00,63.2,61.4,30.39,WSW,246,1.0,2.0,94,0.00,,,0.00,0,Wunderground v.1.15,2013-08-25 02:11:00,
2013-08-24 22:16:00,63.0,61.2,30.39,WSW,247,1.0,3.0,94,0.00,,,0.00,0,Wunderground v.1.15,2013-08-25 02:16:00,
2013-08-24 22:21:00,62.9,61.1,30.39,WSW,244,1.0,2.0,94,0.00,,,0.00,0,Wunderground v.1.15,2013-08-25 02:21:00,
2013-08-24 22:27:00,62.7,60.9,30.39,WSW,244,1.0,4.0,94,0.00,,,0.00,0,Wunderground v.1.15,2013-08-25 02:27:00,
2013-08-24 22:32:00,62.5,61.0,30.39,WSW,247,1.0,1.0,95,0.00,,,0.00,0,Wunderground v.1.15,2013-08-25 02:32:00,
2013-08-24 22:38:00,62.3,60.8,30.39,WSW,246,1.0,2.0,95,0.00,,,0.00,0,Wunderground v.1.15,2013-08-25 02:38:00,
2013-08-24 22:43:00,62.1,60.7,30.39,WSW,244,0.0,1.0,95,0.00,,,0.00,0,Wunderground v.1.15,2013-08-25 02:43:00,
2013-08-24 22:48:00,62.0,60.6,30.39,WSW,246,0.0,1.0,95,0.00,,,0.00,0,Wunderground v.1.15,2013-08-25 02:48:00,
2013-08-24 22:53:00,61.9,60.5,30.39,WSW,246,0.0,1.0,95,0.00,,,0.00,0,Wunderground v.1.15,2013-08-25 02:53:00,
2013-08-24 22:59:00,61.7,60.3,30.40,WSW,247,0.0,1.0,95,0.00,,,0.00,0,Wunderground v.1.15,2013-08-25 02:59:00,
2013-08-24 23:05:00,61.6,60.2,30.40,WSW,245,0.0,0.0,95,0.00,,,0.00,0,Wunderground v.1.15,2013-08-25 03:05:00,
2013-08-24 23:10:00,61.5,60.1,30.40,WSW,247,0.0,0.0,95,0.00,,,0.00,0,Wunderground v.1.15,2013-08-25 03:10:00,
2013-08-24 23:16:00,61.3,59.9,30.40,WSW,248,0.0,0.0,95,0.00,,,0.00,0,Wunderground v.1.15,2013-08-25 03:16:00,
2013-08-24 23:21:00,61.2,59.8,30.41,WSW,244,0.0,0.0,95,0.00,,,0.00,0,Wunderground v.1.15,2013-08-25 03:21:00,
2013-08-24 23:26:00,61.0,59.9,30.41,WSW,245,0.0,0.0,96,0.00,,,0.00,0,Wunderground v.1.15,2013-08-25 03:26:00,
2013-08-24 23:32:00,60.8,59.4,30.41,WSW,246,0.0,0.0,95,0.00,,,0.00,0,Wunderground v.1.15,2013-08-25 03:32:00,
2013-08-24 23:37:00,60.6,59.5,30.41,WSW,246,0.0,2.0,96,0.00,,,0.00,0,Wunderground v.1.15,2013-08-25 03:37:00,
2013-08-24 23:43:00,60.5,59.4,30.41,WSW,244,1.0,3.0,96,0.00,,,0.00,0,Wunderground v.1.15,2013-08-25 03:43:00,
2013-08-24 23:48:00,60.3,59.2,30.41,WSW,246,2.0,3.0,96,0.00,,,0.00,0,Wunderground v.1.15,2013-08-25 03:48:00,
2013-08-24 23:53:00,60.2,59.1,30.42,WSW,247,1.0,1.0,96,0.00,,,0.00,0,Wunderground v.1.15,2013-08-25 03:53:00,
2013-08-24 23:59:00,60.1,59.0,30.42,WSW,243,0.0,1.0,96,0.00,,,0.00,0,Wunderground v.1.15,2013-08-25 03:59:00,